sensor_id;sensor_type;location;lat;lon;timestamp;P1;durP1;ratioP1;P2;durP2;ratioP2
51764;SDS011;37835;53.256;6.456;2023-05-02T00:01:34;15.30;;;4.57;;
51764;SDS011;37835;53.256;6.456;2023-05-02T00:04:00;13.65;;;4.40;;
51764;SDS011;37835;53.256;6.456;2023-05-02T00:06:26;12.93;;;3.97;;
51764;SDS011;37835;53.256;6.456;2023-05-02T00:08:51;9.73;;;3.90;;
51764;SDS011;37835;53.256;6.456;2023-05-02T00:11:17;16.02;;;4.18;;
51764;SDS011;37835;53.256;6.456;2023-05-02T00:13:42;13.10;;;4.43;;
51764;SDS011;37835;53.256;6.456;2023-05-02T00:16:08;8.10;;;3.20;;
51764;SDS011;37835;53.256;6.456;2023-05-02T00:18:35;10.18;;;3.50;;
51764;SDS011;37835;53.256;6.456;2023-05-02T00:21:00;8.60;;;3.42;;
51764;SDS011;37835;53.256;6.456;2023-05-02T00:23:26;11.52;;;3.97;;
51764;SDS011;37835;53.256;6.456;2023-05-02T00:25:51;11.00;;;4.05;;
51764;SDS011;37835;53.256;6.456;2023-05-02T00:28:17;15.35;;;4.40;;
51764;SDS011;37835;53.256;6.456;2023-05-02T00:30:43;8.95;;;3.75;;
51764;SDS011;37835;53.256;6.456;2023-05-02T00:33:09;8.80;;;3.90;;
51764;SDS011;37835;53.256;6.456;2023-05-02T00:35:36;12.43;;;4.15;;
51764;SDS011;37835;53.256;6.456;2023-05-02T00:38:02;12.85;;;3.67;;
51764;SDS011;37835;53.256;6.456;2023-05-02T00:40:27;13.13;;;3.60;;
51764;SDS011;37835;53.256;6.456;2023-05-02T00:42:53;8.23;;;3.88;;
51764;SDS011;37835;53.256;6.456;2023-05-02T00:45:19;15.15;;;4.18;;
51764;SDS011;37835;53.256;6.456;2023-05-02T00:47:44;8.75;;;3.47;;
51764;SDS011;37835;53.256;6.456;2023-05-02T00:50:10;10.30;;;4.47;;
51764;SDS011;37835;53.256;6.456;2023-05-02T00:52:36;7.18;;;3.67;;
51764;SDS011;37835;53.256;6.456;2023-05-02T00:55:02;10.10;;;4.28;;
51764;SDS011;37835;53.256;6.456;2023-05-02T00:57:28;9.23;;;3.80;;
51764;SDS011;37835;53.256;6.456;2023-05-02T00:59:54;12.52;;;4.82;;
51764;SDS011;37835;53.256;6.456;2023-05-02T01:07:45;25.23;;;5.43;;
51764;SDS011;37835;53.256;6.456;2023-05-02T01:12:56;20.52;;;4.82;;
51764;SDS011;37835;53.256;6.456;2023-05-02T01:15:27;17.38;;;4.22;;
51764;SDS011;37835;53.256;6.456;2023-05-02T01:17:53;23.48;;;4.60;;
51764;SDS011;37835;53.256;6.456;2023-05-02T01:20:20;20.75;;;5.00;;
51764;SDS011;37835;53.256;6.456;2023-05-02T01:22:51;20.27;;;4.85;;
51764;SDS011;37835;53.256;6.456;2023-05-02T01:25:25;19.55;;;4.45;;
51764;SDS011;37835;53.256;6.456;2023-05-02T01:30:40;28.58;;;4.82;;
51764;SDS011;37835;53.256;6.456;2023-05-02T01:33:09;22.08;;;5.32;;
51764;SDS011;37835;53.256;6.456;2023-05-02T01:35:37;30.45;;;5.72;;
51764;SDS011;37835;53.256;6.456;2023-05-02T01:38:04;34.33;;;5.95;;
51764;SDS011;37835;53.256;6.456;2023-05-02T01:40:31;31.90;;;5.70;;
51764;SDS011;37835;53.256;6.456;2023-05-02T01:42:58;22.58;;;4.70;;
51764;SDS011;37835;53.256;6.456;2023-05-02T01:45:28;25.77;;;6.03;;
51764;SDS011;37835;53.256;6.456;2023-05-02T01:47:54;26.25;;;4.85;;
51764;SDS011;37835;53.256;6.456;2023-05-02T01:50:22;27.05;;;5.35;;
51764;SDS011;37835;53.256;6.456;2023-05-02T01:52:50;26.10;;;4.63;;
51764;SDS011;37835;53.256;6.456;2023-05-02T01:55:17;33.67;;;4.90;;
51764;SDS011;37835;53.256;6.456;2023-05-02T01:57:45;27.15;;;5.07;;
51764;SDS011;37835;53.256;6.456;2023-05-02T02:00:11;30.58;;;5.32;;
51764;SDS011;37835;53.256;6.456;2023-05-02T02:02:40;24.52;;;4.70;;
51764;SDS011;37835;53.256;6.456;2023-05-02T02:05:07;30.25;;;5.20;;
51764;SDS011;37835;53.256;6.456;2023-05-02T02:07:34;33.83;;;5.68;;
51764;SDS011;37835;53.256;6.456;2023-05-02T02:10:00;28.42;;;6.05;;
51764;SDS011;37835;53.256;6.456;2023-05-02T02:12:37;30.85;;;6.50;;
51764;SDS011;37835;53.256;6.456;2023-05-02T02:15:15;36.15;;;6.22;;
51764;SDS011;37835;53.256;6.456;2023-05-02T02:20:17;37.88;;;5.95;;
51764;SDS011;37835;53.256;6.456;2023-05-02T02:22:43;33.85;;;5.90;;
51764;SDS011;37835;53.256;6.456;2023-05-02T02:25:10;31.90;;;5.97;;
51764;SDS011;37835;53.256;6.456;2023-05-02T02:27:38;32.72;;;5.28;;
51764;SDS011;37835;53.256;6.456;2023-05-02T02:30:05;37.33;;;5.88;;
51764;SDS011;37835;53.256;6.456;2023-05-02T02:32:32;28.83;;;5.15;;
51764;SDS011;37835;53.256;6.456;2023-05-02T02:34:58;24.92;;;5.07;;
51764;SDS011;37835;53.256;6.456;2023-05-02T02:37:38;23.45;;;4.90;;
51764;SDS011;37835;53.256;6.456;2023-05-02T02:43:14;22.85;;;5.10;;
51764;SDS011;37835;53.256;6.456;2023-05-02T02:48:56;23.65;;;4.95;;
51764;SDS011;37835;53.256;6.456;2023-05-02T02:51:40;18.38;;;4.22;;
51764;SDS011;37835;53.256;6.456;2023-05-02T02:54:17;18.35;;;3.80;;
51764;SDS011;37835;53.256;6.456;2023-05-02T02:56:57;20.33;;;3.70;;
51764;SDS011;37835;53.256;6.456;2023-05-02T02:59:33;25.55;;;3.97;;
51764;SDS011;37835;53.256;6.456;2023-05-02T03:02:04;17.20;;;3.55;;
51764;SDS011;37835;53.256;6.456;2023-05-02T03:04:33;23.45;;;4.20;;
51764;SDS011;37835;53.256;6.456;2023-05-02T03:07:02;27.58;;;3.60;;
51764;SDS011;37835;53.256;6.456;2023-05-02T03:09:28;13.82;;;3.10;;
51764;SDS011;37835;53.256;6.456;2023-05-02T03:12:11;17.60;;;3.83;;
51764;SDS011;37835;53.256;6.456;2023-05-02T03:14:38;16.33;;;3.53;;
51764;SDS011;37835;53.256;6.456;2023-05-02T03:17:04;21.20;;;3.88;;
51764;SDS011;37835;53.256;6.456;2023-05-02T03:19:32;18.23;;;3.47;;
51764;SDS011;37835;53.256;6.456;2023-05-02T03:21:58;14.73;;;2.58;;
51764;SDS011;37835;53.256;6.456;2023-05-02T03:24:23;14.38;;;2.65;;
51764;SDS011;37835;53.256;6.456;2023-05-02T03:26:53;15.52;;;3.13;;
51764;SDS011;37835;53.256;6.456;2023-05-02T03:29:20;15.00;;;2.60;;
51764;SDS011;37835;53.256;6.456;2023-05-02T03:31:46;17.02;;;3.03;;
51764;SDS011;37835;53.256;6.456;2023-05-02T03:34:11;12.45;;;2.50;;
51764;SDS011;37835;53.256;6.456;2023-05-02T03:36:37;16.67;;;2.63;;
51764;SDS011;37835;53.256;6.456;2023-05-02T03:39:02;14.45;;;2.70;;
51764;SDS011;37835;53.256;6.456;2023-05-02T03:41:28;10.82;;;2.65;;
51764;SDS011;37835;53.256;6.456;2023-05-02T03:43:53;15.57;;;2.45;;
51764;SDS011;37835;53.256;6.456;2023-05-02T03:46:20;10.52;;;2.70;;
51764;SDS011;37835;53.256;6.456;2023-05-02T03:48:45;12.98;;;2.47;;
51764;SDS011;37835;53.256;6.456;2023-05-02T03:51:11;8.27;;;2.20;;
51764;SDS011;37835;53.256;6.456;2023-05-02T03:53:37;12.77;;;2.67;;
51764;SDS011;37835;53.256;6.456;2023-05-02T03:56:03;10.80;;;2.33;;
51764;SDS011;37835;53.256;6.456;2023-05-02T03:58:28;8.77;;;1.98;;
51764;SDS011;37835;53.256;6.456;2023-05-02T04:00:54;14.18;;;2.20;;
51764;SDS011;37835;53.256;6.456;2023-05-02T04:03:20;12.73;;;2.70;;
51764;SDS011;37835;53.256;6.456;2023-05-02T04:05:46;12.40;;;2.15;;
51764;SDS011;37835;53.256;6.456;2023-05-02T04:08:12;9.35;;;2.13;;
51764;SDS011;37835;53.256;6.456;2023-05-02T04:10:38;12.50;;;2.50;;
51764;SDS011;37835;53.256;6.456;2023-05-02T04:13:03;11.80;;;2.60;;
51764;SDS011;37835;53.256;6.456;2023-05-02T04:15:30;11.00;;;2.53;;
51764;SDS011;37835;53.256;6.456;2023-05-02T04:17:59;6.93;;;1.98;;
51764;SDS011;37835;53.256;6.456;2023-05-02T04:20:24;11.27;;;2.42;;
51764;SDS011;37835;53.256;6.456;2023-05-02T04:22:50;10.80;;;2.17;;
51764;SDS011;37835;53.256;6.456;2023-05-02T04:25:16;9.10;;;2.00;;
51764;SDS011;37835;53.256;6.456;2023-05-02T04:27:42;12.95;;;2.40;;
51764;SDS011;37835;53.256;6.456;2023-05-02T04:30:08;10.07;;;2.05;;
51764;SDS011;37835;53.256;6.456;2023-05-02T04:32:36;13.23;;;2.20;;
51764;SDS011;37835;53.256;6.456;2023-05-02T04:35:02;12.68;;;2.50;;
51764;SDS011;37835;53.256;6.456;2023-05-02T04:37:28;16.83;;;2.72;;
51764;SDS011;37835;53.256;6.456;2023-05-02T04:39:54;13.98;;;2.70;;
51764;SDS011;37835;53.256;6.456;2023-05-02T04:42:19;11.35;;;2.25;;
51764;SDS011;37835;53.256;6.456;2023-05-02T04:44:45;10.50;;;2.58;;
51764;SDS011;37835;53.256;6.456;2023-05-02T04:47:12;17.10;;;3.45;;
51764;SDS011;37835;53.256;6.456;2023-05-02T04:49:37;12.10;;;2.72;;
51764;SDS011;37835;53.256;6.456;2023-05-02T04:52:03;12.07;;;3.40;;
51764;SDS011;37835;53.256;6.456;2023-05-02T04:54:29;19.42;;;3.05;;
51764;SDS011;37835;53.256;6.456;2023-05-02T04:56:57;17.15;;;3.10;;
51764;SDS011;37835;53.256;6.456;2023-05-02T04:59:23;18.67;;;3.78;;
51764;SDS011;37835;53.256;6.456;2023-05-02T05:01:49;21.50;;;2.70;;
51764;SDS011;37835;53.256;6.456;2023-05-02T05:04:14;15.95;;;2.70;;
51764;SDS011;37835;53.256;6.456;2023-05-02T05:06:40;11.38;;;2.85;;
51764;SDS011;37835;53.256;6.456;2023-05-02T05:09:05;19.38;;;3.33;;
51764;SDS011;37835;53.256;6.456;2023-05-02T05:11:31;16.73;;;3.35;;
51764;SDS011;37835;53.256;6.456;2023-05-02T05:13:56;20.92;;;3.90;;
51764;SDS011;37835;53.256;6.456;2023-05-02T05:16:22;15.07;;;3.20;;
51764;SDS011;37835;53.256;6.456;2023-05-02T05:18:48;13.70;;;3.08;;
51764;SDS011;37835;53.256;6.456;2023-05-02T05:21:13;17.83;;;3.10;;
51764;SDS011;37835;53.256;6.456;2023-05-02T05:23:39;13.13;;;3.47;;
51764;SDS011;37835;53.256;6.456;2023-05-02T05:26:13;16.50;;;3.53;;
51764;SDS011;37835;53.256;6.456;2023-05-02T05:28:40;16.33;;;3.13;;
51764;SDS011;37835;53.256;6.456;2023-05-02T05:31:06;15.80;;;3.15;;
51764;SDS011;37835;53.256;6.456;2023-05-02T05:33:35;12.75;;;3.42;;
51764;SDS011;37835;53.256;6.456;2023-05-02T05:36:05;17.52;;;3.45;;
51764;SDS011;37835;53.256;6.456;2023-05-02T05:38:38;17.80;;;3.28;;
51764;SDS011;37835;53.256;6.456;2023-05-02T05:41:04;16.20;;;3.55;;
51764;SDS011;37835;53.256;6.456;2023-05-02T05:43:30;18.23;;;3.63;;
51764;SDS011;37835;53.256;6.456;2023-05-02T05:45:56;14.27;;;3.22;;
51764;SDS011;37835;53.256;6.456;2023-05-02T05:48:21;11.32;;;2.95;;
51764;SDS011;37835;53.256;6.456;2023-05-02T05:50:47;9.85;;;2.78;;
51764;SDS011;37835;53.256;6.456;2023-05-02T05:53:14;13.82;;;3.10;;
51764;SDS011;37835;53.256;6.456;2023-05-02T05:55:40;16.50;;;2.80;;
51764;SDS011;37835;53.256;6.456;2023-05-02T05:58:06;14.55;;;3.17;;
51764;SDS011;37835;53.256;6.456;2023-05-02T06:00:35;14.30;;;2.92;;
51764;SDS011;37835;53.256;6.456;2023-05-02T06:03:02;14.00;;;3.63;;
51764;SDS011;37835;53.256;6.456;2023-05-02T06:05:28;14.05;;;2.92;;
51764;SDS011;37835;53.256;6.456;2023-05-02T06:07:54;13.05;;;3.17;;
51764;SDS011;37835;53.256;6.456;2023-05-02T06:10:20;10.05;;;2.70;;
51764;SDS011;37835;53.256;6.456;2023-05-02T06:12:46;13.70;;;3.03;;
51764;SDS011;37835;53.256;6.456;2023-05-02T06:15:12;12.48;;;3.08;;
51764;SDS011;37835;53.256;6.456;2023-05-02T06:17:37;17.33;;;3.40;;
51764;SDS011;37835;53.256;6.456;2023-05-02T06:20:03;12.48;;;3.33;;
51764;SDS011;37835;53.256;6.456;2023-05-02T06:22:29;15.77;;;3.08;;
51764;SDS011;37835;53.256;6.456;2023-05-02T06:24:54;16.15;;;3.50;;
51764;SDS011;37835;53.256;6.456;2023-05-02T06:27:20;19.30;;;4.25;;
51764;SDS011;37835;53.256;6.456;2023-05-02T06:29:45;9.90;;;3.40;;
51764;SDS011;37835;53.256;6.456;2023-05-02T06:32:11;13.65;;;3.75;;
51764;SDS011;37835;53.256;6.456;2023-05-02T06:34:37;22.55;;;4.00;;
51764;SDS011;37835;53.256;6.456;2023-05-02T06:37:02;17.25;;;3.08;;
51764;SDS011;37835;53.256;6.456;2023-05-02T06:39:28;12.70;;;2.63;;
51764;SDS011;37835;53.256;6.456;2023-05-02T06:41:56;7.70;;;2.55;;
51764;SDS011;37835;53.256;6.456;2023-05-02T06:44:22;9.80;;;2.70;;
51764;SDS011;37835;53.256;6.456;2023-05-02T06:46:48;10.63;;;2.75;;
51764;SDS011;37835;53.256;6.456;2023-05-02T06:49:14;12.15;;;3.17;;
51764;SDS011;37835;53.256;6.456;2023-05-02T06:51:40;11.13;;;2.25;;
51764;SDS011;37835;53.256;6.456;2023-05-02T06:54:05;9.40;;;2.72;;
51764;SDS011;37835;53.256;6.456;2023-05-02T06:56:31;14.98;;;3.47;;
51764;SDS011;37835;53.256;6.456;2023-05-02T06:58:57;10.80;;;2.88;;
51764;SDS011;37835;53.256;6.456;2023-05-02T07:01:22;13.20;;;2.80;;
51764;SDS011;37835;53.256;6.456;2023-05-02T07:03:48;10.57;;;3.33;;
51764;SDS011;37835;53.256;6.456;2023-05-02T07:06:13;11.30;;;2.92;;
51764;SDS011;37835;53.256;6.456;2023-05-02T07:08:39;17.63;;;3.15;;
51764;SDS011;37835;53.256;6.456;2023-05-02T07:11:05;18.55;;;3.20;;
51764;SDS011;37835;53.256;6.456;2023-05-02T07:13:30;9.50;;;2.80;;
51764;SDS011;37835;53.256;6.456;2023-05-02T07:15:56;11.15;;;2.83;;
51764;SDS011;37835;53.256;6.456;2023-05-02T07:18:21;17.15;;;3.88;;
51764;SDS011;37835;53.256;6.456;2023-05-02T07:20:47;16.15;;;3.47;;
51764;SDS011;37835;53.256;6.456;2023-05-02T07:23:13;14.50;;;3.15;;
51764;SDS011;37835;53.256;6.456;2023-05-02T07:25:38;8.88;;;2.78;;
51764;SDS011;37835;53.256;6.456;2023-05-02T07:28:04;16.30;;;3.10;;
51764;SDS011;37835;53.256;6.456;2023-05-02T07:30:30;16.73;;;3.47;;
51764;SDS011;37835;53.256;6.456;2023-05-02T07:32:56;14.25;;;3.05;;
51764;SDS011;37835;53.256;6.456;2023-05-02T07:35:21;6.95;;;2.33;;
51764;SDS011;37835;53.256;6.456;2023-05-02T07:37:47;13.77;;;2.60;;
51764;SDS011;37835;53.256;6.456;2023-05-02T07:40:13;15.48;;;2.80;;
51764;SDS011;37835;53.256;6.456;2023-05-02T07:42:38;9.63;;;2.70;;
51764;SDS011;37835;53.256;6.456;2023-05-02T07:45:06;8.88;;;2.05;;
51764;SDS011;37835;53.256;6.456;2023-05-02T07:47:32;10.88;;;2.53;;
51764;SDS011;37835;53.256;6.456;2023-05-02T07:49:57;8.90;;;2.50;;
51764;SDS011;37835;53.256;6.456;2023-05-02T07:52:23;5.18;;;1.80;;
51764;SDS011;37835;53.256;6.456;2023-05-02T07:54:50;9.98;;;1.70;;
51764;SDS011;37835;53.256;6.456;2023-05-02T07:57:16;4.50;;;1.67;;
51764;SDS011;37835;53.256;6.456;2023-05-02T07:59:42;8.18;;;1.90;;
51764;SDS011;37835;53.256;6.456;2023-05-02T08:02:08;4.00;;;1.45;;
51764;SDS011;37835;53.256;6.456;2023-05-02T08:04:33;5.18;;;2.00;;
51764;SDS011;37835;53.256;6.456;2023-05-02T08:06:59;7.15;;;1.73;;
51764;SDS011;37835;53.256;6.456;2023-05-02T08:09:25;5.97;;;1.52;;
51764;SDS011;37835;53.256;6.456;2023-05-02T08:11:51;4.68;;;1.30;;
51764;SDS011;37835;53.256;6.456;2023-05-02T08:14:16;3.58;;;1.30;;
51764;SDS011;37835;53.256;6.456;2023-05-02T08:16:42;6.53;;;1.50;;
51764;SDS011;37835;53.256;6.456;2023-05-02T08:19:08;7.95;;;1.58;;
51764;SDS011;37835;53.256;6.456;2023-05-02T08:21:33;6.30;;;1.35;;
51764;SDS011;37835;53.256;6.456;2023-05-02T08:23:59;7.20;;;1.38;;
51764;SDS011;37835;53.256;6.456;2023-05-02T08:26:25;7.45;;;1.52;;
51764;SDS011;37835;53.256;6.456;2023-05-02T08:28:52;6.93;;;1.10;;
51764;SDS011;37835;53.256;6.456;2023-05-02T08:31:21;5.15;;;1.60;;
51764;SDS011;37835;53.256;6.456;2023-05-02T08:33:46;5.15;;;1.35;;
51764;SDS011;37835;53.256;6.456;2023-05-02T08:36:13;6.00;;;1.50;;
51764;SDS011;37835;53.256;6.456;2023-05-02T08:38:40;7.25;;;1.20;;
51764;SDS011;37835;53.256;6.456;2023-05-02T08:41:12;7.90;;;1.58;;
51764;SDS011;37835;53.256;6.456;2023-05-02T08:43:39;8.27;;;1.10;;
51764;SDS011;37835;53.256;6.456;2023-05-02T08:46:06;7.25;;;1.67;;
51764;SDS011;37835;53.256;6.456;2023-05-02T08:48:33;7.75;;;1.73;;
51764;SDS011;37835;53.256;6.456;2023-05-02T08:51:01;7.40;;;0.90;;
51764;SDS011;37835;53.256;6.456;2023-05-02T08:53:29;6.22;;;0.80;;
51764;SDS011;37835;53.256;6.456;2023-05-02T08:55:58;5.13;;;1.10;;
51764;SDS011;37835;53.256;6.456;2023-05-02T08:58:24;5.20;;;1.45;;
51764;SDS011;37835;53.256;6.456;2023-05-02T09:00:50;6.97;;;1.15;;
51764;SDS011;37835;53.256;6.456;2023-05-02T09:05:57;2.97;;;0.85;;
51764;SDS011;37835;53.256;6.456;2023-05-02T09:11:00;5.03;;;1.10;;
51764;SDS011;37835;53.256;6.456;2023-05-02T09:16:16;7.05;;;1.00;;
51764;SDS011;37835;53.256;6.456;2023-05-02T09:18:47;8.90;;;1.20;;
51764;SDS011;37835;53.256;6.456;2023-05-02T09:21:19;6.43;;;1.15;;
51764;SDS011;37835;53.256;6.456;2023-05-02T09:23:46;7.20;;;1.50;;
51764;SDS011;37835;53.256;6.456;2023-05-02T09:26:26;4.28;;;1.13;;
51764;SDS011;37835;53.256;6.456;2023-05-02T09:28:59;3.10;;;0.98;;
51764;SDS011;37835;53.256;6.456;2023-05-02T09:31:30;5.45;;;1.23;;
51764;SDS011;37835;53.256;6.456;2023-05-02T09:36:41;4.28;;;0.77;;
51764;SDS011;37835;53.256;6.456;2023-05-02T09:39:19;7.47;;;1.13;;
51764;SDS011;37835;53.256;6.456;2023-05-02T09:41:49;7.38;;;1.15;;
51764;SDS011;37835;53.256;6.456;2023-05-02T09:44:15;4.60;;;0.82;;
51764;SDS011;37835;53.256;6.456;2023-05-02T09:46:46;3.22;;;1.20;;
51764;SDS011;37835;53.256;6.456;2023-05-02T09:49:17;5.82;;;0.90;;
51764;SDS011;37835;53.256;6.456;2023-05-02T09:51:43;5.13;;;0.82;;
51764;SDS011;37835;53.256;6.456;2023-05-02T09:54:13;5.80;;;0.90;;
51764;SDS011;37835;53.256;6.456;2023-05-02T09:56:57;2.53;;;0.82;;
51764;SDS011;37835;53.256;6.456;2023-05-02T09:59:23;2.47;;;1.05;;
51764;SDS011;37835;53.256;6.456;2023-05-02T10:01:56;2.88;;;1.00;;
51764;SDS011;37835;53.256;6.456;2023-05-02T10:04:26;4.55;;;1.30;;
51764;SDS011;37835;53.256;6.456;2023-05-02T10:06:53;6.20;;;1.27;;
51764;SDS011;37835;53.256;6.456;2023-05-02T10:09:19;3.47;;;0.65;;
51764;SDS011;37835;53.256;6.456;2023-05-02T10:11:46;3.97;;;0.75;;
51764;SDS011;37835;53.256;6.456;2023-05-02T10:14:15;6.40;;;0.93;;
51764;SDS011;37835;53.256;6.456;2023-05-02T10:20:04;6.90;;;0.90;;
51764;SDS011;37835;53.256;6.456;2023-05-02T10:22:32;8.88;;;1.13;;
51764;SDS011;37835;53.256;6.456;2023-05-02T10:24:58;8.27;;;1.58;;
51764;SDS011;37835;53.256;6.456;2023-05-02T10:27:24;3.78;;;1.33;;
51764;SDS011;37835;53.256;6.456;2023-05-02T10:29:50;7.95;;;1.73;;
51764;SDS011;37835;53.256;6.456;2023-05-02T10:32:16;10.45;;;1.30;;
51764;SDS011;37835;53.256;6.456;2023-05-02T10:34:43;4.57;;;1.27;;
51764;SDS011;37835;53.256;6.456;2023-05-02T10:37:10;5.65;;;1.10;;
51764;SDS011;37835;53.256;6.456;2023-05-02T10:39:36;5.25;;;1.38;;
51764;SDS011;37835;53.256;6.456;2023-05-02T10:42:02;9.23;;;1.20;;
51764;SDS011;37835;53.256;6.456;2023-05-02T10:44:33;4.85;;;0.90;;
51764;SDS011;37835;53.256;6.456;2023-05-02T10:47:00;5.72;;;1.58;;
51764;SDS011;37835;53.256;6.456;2023-05-02T10:49:48;4.05;;;0.90;;
51764;SDS011;37835;53.256;6.456;2023-05-02T10:52:25;4.25;;;0.95;;
51764;SDS011;37835;53.256;6.456;2023-05-02T10:55:12;7.20;;;2.00;;
51764;SDS011;37835;53.256;6.456;2023-05-02T11:00:23;2.63;;;0.95;;
51764;SDS011;37835;53.256;6.456;2023-05-02T11:02:50;8.18;;;0.88;;
51764;SDS011;37835;53.256;6.456;2023-05-02T11:05:16;4.22;;;1.08;;
51764;SDS011;37835;53.256;6.456;2023-05-02T11:07:42;4.18;;;1.13;;
51764;SDS011;37835;53.256;6.456;2023-05-02T11:12:52;5.10;;;1.20;;
51764;SDS011;37835;53.256;6.456;2023-05-02T11:18:02;9.65;;;1.25;;
51764;SDS011;37835;53.256;6.456;2023-05-02T11:20:32;4.20;;;1.10;;
51764;SDS011;37835;53.256;6.456;2023-05-02T11:23:18;6.03;;;1.10;;
51764;SDS011;37835;53.256;6.456;2023-05-02T11:25:52;4.85;;;1.35;;
51764;SDS011;37835;53.256;6.456;2023-05-02T11:33:58;3.20;;;0.85;;
51764;SDS011;37835;53.256;6.456;2023-05-02T11:38:58;1.58;;;0.43;;
51764;SDS011;37835;53.256;6.456;2023-05-02T11:41:37;1.92;;;0.63;;
51764;SDS011;37835;53.256;6.456;2023-05-02T11:44:03;3.17;;;0.45;;
51764;SDS011;37835;53.256;6.456;2023-05-02T11:46:29;1.50;;;0.38;;
51764;SDS011;37835;53.256;6.456;2023-05-02T11:48:55;1.63;;;0.40;;
51764;SDS011;37835;53.256;6.456;2023-05-02T11:51:23;5.75;;;0.80;;
51764;SDS011;37835;53.256;6.456;2023-05-02T11:53:50;6.00;;;0.60;;
51764;SDS011;37835;53.256;6.456;2023-05-02T11:56:16;0.95;;;0.38;;
51764;SDS011;37835;53.256;6.456;2023-05-02T11:58:56;3.47;;;0.40;;
51764;SDS011;37835;53.256;6.456;2023-05-02T12:01:23;2.03;;;0.30;;
51764;SDS011;37835;53.256;6.456;2023-05-02T12:03:48;1.55;;;0.32;;
51764;SDS011;37835;53.256;6.456;2023-05-02T12:06:16;2.10;;;0.38;;
51764;SDS011;37835;53.256;6.456;2023-05-02T12:08:45;1.25;;;0.28;;
51764;SDS011;37835;53.256;6.456;2023-05-02T12:11:14;3.42;;;1.20;;
51764;SDS011;37835;53.256;6.456;2023-05-02T12:13:44;1.10;;;0.28;;
51764;SDS011;37835;53.256;6.456;2023-05-02T12:16:11;2.95;;;0.20;;
51764;SDS011;37835;53.256;6.456;2023-05-02T12:18:37;2.55;;;0.30;;
51764;SDS011;37835;53.256;6.456;2023-05-02T12:21:04;3.72;;;0.38;;
51764;SDS011;37835;53.256;6.456;2023-05-02T12:23:30;2.15;;;0.68;;
51764;SDS011;37835;53.256;6.456;2023-05-02T12:25:56;3.47;;;0.35;;
51764;SDS011;37835;53.256;6.456;2023-05-02T12:28:22;1.08;;;0.35;;
51764;SDS011;37835;53.256;6.456;2023-05-02T12:30:48;6.85;;;0.30;;
51764;SDS011;37835;53.256;6.456;2023-05-02T12:33:15;0.63;;;0.40;;
51764;SDS011;37835;53.256;6.456;2023-05-02T12:35:41;3.53;;;0.35;;
51764;SDS011;37835;53.256;6.456;2023-05-02T12:40:50;2.13;;;0.40;;
51764;SDS011;37835;53.256;6.456;2023-05-02T12:43:17;1.83;;;0.40;;
51764;SDS011;37835;53.256;6.456;2023-05-02T12:45:43;5.15;;;0.40;;
51764;SDS011;37835;53.256;6.456;2023-05-02T12:48:21;5.65;;;0.70;;
51764;SDS011;37835;53.256;6.456;2023-05-02T12:50:52;5.13;;;1.00;;
51764;SDS011;37835;53.256;6.456;2023-05-02T12:53:37;4.63;;;0.88;;
51764;SDS011;37835;53.256;6.456;2023-05-02T12:56:07;6.13;;;0.85;;
51764;SDS011;37835;53.256;6.456;2023-05-02T12:58:47;3.58;;;0.68;;
51764;SDS011;37835;53.256;6.456;2023-05-02T13:01:13;4.50;;;0.52;;
51764;SDS011;37835;53.256;6.456;2023-05-02T13:03:40;7.40;;;0.88;;
51764;SDS011;37835;53.256;6.456;2023-05-02T13:06:07;6.85;;;0.82;;
51764;SDS011;37835;53.256;6.456;2023-05-02T13:08:33;2.85;;;0.70;;
51764;SDS011;37835;53.256;6.456;2023-05-02T13:11:00;4.10;;;0.80;;
51764;SDS011;37835;53.256;6.456;2023-05-02T13:13:27;9.18;;;1.30;;
51764;SDS011;37835;53.256;6.456;2023-05-02T13:15:53;6.45;;;0.82;;
51764;SDS011;37835;53.256;6.456;2023-05-02T13:18:19;5.65;;;0.82;;
51764;SDS011;37835;53.256;6.456;2023-05-02T13:20:45;4.05;;;0.75;;
51764;SDS011;37835;53.256;6.456;2023-05-02T13:23:10;4.13;;;1.20;;
51764;SDS011;37835;53.256;6.456;2023-05-02T13:25:36;5.70;;;0.93;;
51764;SDS011;37835;53.256;6.456;2023-05-02T13:28:02;2.55;;;0.80;;
51764;SDS011;37835;53.256;6.456;2023-05-02T13:30:27;9.10;;;0.63;;
51764;SDS011;37835;53.256;6.456;2023-05-02T13:32:53;3.13;;;0.75;;
51764;SDS011;37835;53.256;6.456;2023-05-02T13:35:19;2.88;;;0.43;;
51764;SDS011;37835;53.256;6.456;2023-05-02T13:37:44;2.15;;;0.35;;
51764;SDS011;37835;53.256;6.456;2023-05-02T13:40:10;4.75;;;0.50;;
51764;SDS011;37835;53.256;6.456;2023-05-02T13:42:36;2.28;;;0.50;;
51764;SDS011;37835;53.256;6.456;2023-05-02T13:45:02;1.88;;;0.47;;
51764;SDS011;37835;53.256;6.456;2023-05-02T13:47:29;2.63;;;0.40;;
51764;SDS011;37835;53.256;6.456;2023-05-02T13:49:55;3.38;;;0.60;;
51764;SDS011;37835;53.256;6.456;2023-05-02T13:52:20;3.15;;;0.50;;
51764;SDS011;37835;53.256;6.456;2023-05-02T13:54:46;2.08;;;0.57;;
51764;SDS011;37835;53.256;6.456;2023-05-02T13:57:11;2.47;;;0.60;;
51764;SDS011;37835;53.256;6.456;2023-05-02T13:59:37;4.72;;;0.60;;
51764;SDS011;37835;53.256;6.456;2023-05-02T14:02:03;4.40;;;0.65;;
51764;SDS011;37835;53.256;6.456;2023-05-02T14:04:28;1.85;;;0.63;;
51764;SDS011;37835;53.256;6.456;2023-05-02T14:06:54;3.25;;;0.50;;
51764;SDS011;37835;53.256;6.456;2023-05-02T14:09:19;2.13;;;0.60;;
51764;SDS011;37835;53.256;6.456;2023-05-02T14:11:45;6.05;;;0.77;;
51764;SDS011;37835;53.256;6.456;2023-05-02T14:14:12;6.07;;;0.73;;
51764;SDS011;37835;53.256;6.456;2023-05-02T14:16:38;4.18;;;0.95;;
51764;SDS011;37835;53.256;6.456;2023-05-02T14:19:04;4.63;;;0.70;;
51764;SDS011;37835;53.256;6.456;2023-05-02T14:21:29;4.15;;;0.77;;
51764;SDS011;37835;53.256;6.456;2023-05-02T14:23:56;3.47;;;0.80;;
51764;SDS011;37835;53.256;6.456;2023-05-02T14:26:21;7.25;;;1.00;;
51764;SDS011;37835;53.256;6.456;2023-05-02T14:28:47;8.95;;;0.98;;
51764;SDS011;37835;53.256;6.456;2023-05-02T14:31:13;3.47;;;1.25;;
51764;SDS011;37835;53.256;6.456;2023-05-02T14:33:39;8.32;;;1.08;;
51764;SDS011;37835;53.256;6.456;2023-05-02T14:36:04;6.22;;;0.95;;
51764;SDS011;37835;53.256;6.456;2023-05-02T14:38:30;5.07;;;0.95;;
51764;SDS011;37835;53.256;6.456;2023-05-02T14:40:56;5.28;;;0.85;;
51764;SDS011;37835;53.256;6.456;2023-05-02T14:43:21;2.67;;;0.73;;
51764;SDS011;37835;53.256;6.456;2023-05-02T14:45:47;4.20;;;0.63;;
51764;SDS011;37835;53.256;6.456;2023-05-02T14:48:12;5.40;;;0.80;;
51764;SDS011;37835;53.256;6.456;2023-05-02T14:50:40;5.93;;;1.00;;
51764;SDS011;37835;53.256;6.456;2023-05-02T14:53:06;9.95;;;1.02;;
51764;SDS011;37835;53.256;6.456;2023-05-02T14:55:35;10.15;;;1.10;;
51764;SDS011;37835;53.256;6.456;2023-05-02T15:00:32;8.23;;;1.17;;
51764;SDS011;37835;53.256;6.456;2023-05-02T15:02:58;12.70;;;6.40;;
51764;SDS011;37835;53.256;6.456;2023-05-02T15:05:25;4.55;;;0.93;;
51764;SDS011;37835;53.256;6.456;2023-05-02T15:07:51;5.93;;;1.52;;
51764;SDS011;37835;53.256;6.456;2023-05-02T15:10:16;6.47;;;1.05;;
51764;SDS011;37835;53.256;6.456;2023-05-02T15:12:42;2.65;;;0.90;;
51764;SDS011;37835;53.256;6.456;2023-05-02T15:15:09;4.97;;;0.77;;
51764;SDS011;37835;53.256;6.456;2023-05-02T15:17:35;3.33;;;0.50;;
51764;SDS011;37835;53.256;6.456;2023-05-02T15:20:00;5.63;;;1.02;;
51764;SDS011;37835;53.256;6.456;2023-05-02T15:22:28;6.55;;;0.80;;
51764;SDS011;37835;53.256;6.456;2023-05-02T15:24:53;4.40;;;0.60;;
51764;SDS011;37835;53.256;6.456;2023-05-02T15:27:19;3.95;;;0.85;;
51764;SDS011;37835;53.256;6.456;2023-05-02T15:29:45;5.85;;;0.50;;
51764;SDS011;37835;53.256;6.456;2023-05-02T15:32:10;3.92;;;1.13;;
51764;SDS011;37835;53.256;6.456;2023-05-02T15:34:36;3.60;;;0.77;;
51764;SDS011;37835;53.256;6.456;2023-05-02T15:37:01;4.35;;;0.70;;